Time;durP1;ratioP1;P1;durP2;ratioP2;P2;SDS_P1;SDS_P2;PMS_P1;PMS_P2;Temp;Humidity;BMP_temperature;BMP_pressure;BME280_temperature;BME280_humidity;BME280_pressure;Samples;Min_cycle;Max_cycle;Signal;HPM_P1;HPM_P2
2022/07/29 00:00:08;;;;;;;1.58;0.90;;;17.70;1.40;;;18.65;100.00;95345.24;650116;216;31469;-72
2022/07/29 00:02:50;;;;;;;0.90;0.60;;;17.70;1.40;;;18.69;100.00;95347.84;645204;216;31494;-72
2022/07/29 00:05:32;;;;;;;0.80;0.60;;;17.70;1.40;;;18.70;100.00;95345.86;646190;216;31480;-72
2022/07/29 00:08:15;;;;;;;0.70;0.70;;;17.70;1.40;;;18.73;100.00;95343.46;645727;212;31501;-72
2022/07/29 00:10:56;;;;;;;1.33;0.90;;;17.70;1.40;;;18.76;100.00;95342.22;649658;216;31499;-72
2022/07/29 00:13:41;;;;;;;0.90;0.62;;;17.70;1.40;;;18.74;100.00;95337.56;644827;212;31505;-72
2022/07/29 00:16:23;;;;;;;0.80;0.80;;;17.60;1.40;;;18.71;100.00;95335.27;649364;216;31524;-73
2022/07/29 00:19:04;;;;;;;0.85;0.70;;;17.70;1.40;;;18.69;100.00;95322.13;648706;212;31459;-72
2022/07/29 00:21:46;;;;;;;0.80;0.80;;;17.70;1.40;;;18.80;100.00;95325.80;647961;216;32027;-72
2022/07/29 00:24:28;;;;;;;0.90;0.70;;;17.80;1.40;;;18.82;100.00;95331.36;650569;212;31480;-72
2022/07/29 00:27:10;;;;;;;1.10;0.53;;;17.70;1.40;;;18.77;100.00;95332.78;647348;216;31485;-72
2022/07/29 00:29:51;;;;;;;1.10;0.60;;;17.60;1.40;;;18.75;100.00;95326.81;645610;212;31579;-72
2022/07/29 00:32:33;;;;;;;0.70;0.70;;;17.60;1.40;;;18.67;100.00;95322.34;649993;212;31481;-73
2022/07/29 00:35:51;;;;;;;0.70;0.60;;;17.30;1.40;;;18.51;100.00;95322.55;646984;216;31568;-72
2022/07/29 00:38:33;;;;;;;1.10;0.60;;;17.30;1.40;;;18.39;100.00;95323.81;621963;222;32708;-72
2022/07/29 00:41:14;;;;;;;0.70;0.60;;;17.30;1.40;;;18.36;100.00;95316.60;645439;216;31512;-72
2022/07/29 00:43:56;;;;;;;1.80;0.60;;;17.30;1.40;;;18.34;100.00;95311.95;648663;212;31473;-72
2022/07/29 00:46:38;;;;;;;1.42;1.20;;;17.20;1.40;;;18.32;100.00;95310.80;647285;213;31698;-72
2022/07/29 00:49:19;;;;;;;2.60;1.00;;;17.30;1.40;;;18.33;100.00;95314.14;648804;216;31522;-73
2022/07/29 00:52:03;;;;;;;1.50;0.60;;;17.30;1.40;;;18.40;100.00;95313.92;652518;212;32127;-72
2022/07/29 00:54:44;;;;;;;1.10;1.00;;;17.40;1.40;;;18.44;100.00;95303.94;641447;212;31721;-74
2022/07/29 00:57:26;;;;;;;0.80;0.80;;;17.40;1.40;;;18.48;100.00;95298.63;648460;216;31612;-72
2022/07/29 01:00:10;;;;;;;0.80;0.80;;;17.40;1.40;;;18.44;100.00;95294.97;647254;216;32536;-72
2022/07/29 01:02:55;;;;;;;1.00;0.60;;;17.30;1.40;;;18.48;100.00;95289.97;644747;212;33336;-72
2022/07/29 01:08:11;;;;;;;0.65;0.45;;;17.40;1.40;;;18.65;100.00;95279.50;649582;216;31492;-74
2022/07/29 01:10:52;;;;;;;1.20;0.50;;;17.50;1.40;;;18.76;100.00;95280.78;649505;212;31594;-73
2022/07/29 01:13:34;;;;;;;0.40;0.30;;;17.60;1.40;;;18.79;100.00;95283.36;647252;216;31599;-72
2022/07/29 01:16:22;;;;;;;1.30;0.70;;;17.80;1.40;;;18.89;100.00;95281.77;648966;212;31459;-74
2022/07/29 01:19:08;;;;;;;1.80;0.70;;;17.90;1.40;;;18.93;100.00;95284.19;648121;213;31799;-74
2022/07/29 01:21:51;;;;;;;0.80;0.60;;;17.90;1.40;;;18.95;100.00;95276.72;649230;216;31558;-72
2022/07/29 01:25:08;;;;;;;0.70;0.60;;;17.90;1.40;;;18.97;100.00;95279.62;647409;212;31499;-73
2022/07/29 01:28:07;;;;;;;1.20;1.10;;;17.90;1.40;;;18.96;100.00;95279.02;621391;222;31846;-72
2022/07/29 01:30:49;;;;;;;0.70;0.70;;;17.80;1.40;;;18.95;100.00;95281.09;649815;212;31932;-72
2022/07/29 01:35:51;;;;;;;1.40;0.50;;;17.70;1.40;;;18.88;100.00;95283.54;651552;216;32089;-72
2022/07/29 01:38:32;;;;;;;0.80;0.40;;;17.70;1.40;;;18.83;100.00;95276.88;649710;216;31470;-72
2022/07/29 01:41:14;;;;;;;0.82;0.80;;;17.60;1.40;;;18.80;100.00;95274.70;650284;212;31570;-72
2022/07/29 01:43:58;;;;;;;0.93;0.85;;;17.60;1.40;;;18.73;100.00;95274.57;646555;216;31607;-72
2022/07/29 01:46:40;;;;;;;1.40;0.70;;;17.50;1.40;;;18.64;100.00;95276.37;647539;216;32009;-72
2022/07/29 01:49:33;;;;;;;1.35;0.68;;;17.50;1.40;;;18.55;100.00;95266.73;622457;225;31949;-73
2022/07/29 01:52:16;;;;;;;1.00;0.70;;;17.40;1.40;;;18.56;100.00;95268.00;620412;226;31799;-72
2022/07/29 01:54:57;;;;;;;0.70;0.60;;;17.40;1.40;;;18.52;100.00;95272.67;649453;212;31470;-73
2022/07/29 01:57:39;;;;;;;1.20;0.77;;;17.50;1.40;;;18.49;100.00;95269.42;646401;216;32253;-72
2022/07/29 02:00:21;;;;;;;0.80;0.60;;;17.40;1.40;;;18.44;100.00;95263.13;622219;226;31840;-72
2022/07/29 02:03:02;;;;;;;0.43;0.40;;;17.30;1.40;;;18.42;100.00;95259.30;644723;212;31624;-72
2022/07/29 02:05:44;;;;;;;0.62;0.60;;;17.30;1.40;;;18.36;100.00;95261.96;646746;216;31539;-72
2022/07/29 02:08:26;;;;;;;0.80;0.70;;;17.30;1.40;;;18.35;100.00;95260.52;648310;212;31700;-72
2022/07/29 02:11:08;;;;;;;1.00;0.70;;;17.20;1.40;;;18.29;100.00;95259.66;647923;216;31504;-73
2022/07/29 02:13:49;;;;;;;0.60;0.60;;;17.20;1.40;;;18.20;100.00;95246.88;647310;212;32030;-72
2022/07/29 02:19:05;;;;;;;1.92;1.20;;;17.00;1.40;;;18.04;100.00;95244.51;620041;222;32028;-72
2022/07/29 02:21:50;;;;;;;0.52;0.50;;;16.80;1.40;;;18.03;100.00;95247.77;645686;212;31538;-72
2022/07/29 02:24:31;;;;;;;2.28;0.70;;;16.80;1.40;;;17.94;100.00;95249.13;648306;216;31472;-74
2022/07/29 02:27:13;;;;;;;3.80;0.68;;;16.70;1.40;;;17.90;100.00;95247.98;649148;212;32102;-72
2022/07/29 02:29:55;;;;;;;0.50;0.50;;;16.70;1.40;;;17.91;100.00;95250.13;651421;216;31580;-73
2022/07/29 02:32:37;;;;;;;1.00;1.00;;;16.60;1.40;;;17.89;100.00;95251.15;649039;216;31550;-72
2022/07/29 02:35:51;;;;;;;0.70;0.50;;;16.70;1.40;;;17.76;100.00;95244.08;649877;216;31465;-72
2022/07/29 02:41:21;;;;;;;1.00;0.53;;;16.30;1.40;;;17.52;100.00;95233.27;649950;216;31572;-72
2022/07/29 02:44:05;;;;;;;0.90;0.90;;;16.10;1.40;;;17.44;100.00;95229.32;644906;212;31525;-72
2022/07/29 02:46:46;;;;;;;0.68;0.68;;;16.00;1.40;;;17.46;100.00;95228.99;647623;216;31498;-72
2022/07/29 02:49:35;;;;;;;0.68;0.60;;;15.90;1.40;;;17.39;100.00;95233.50;646038;212;31520;-73
2022/07/29 02:52:19;;;;;;;0.70;0.70;;;16.00;1.40;;;17.31;100.00;95225.34;645080;212;31751;-72
2022/07/29 02:58:28;;;;;;;0.90;0.90;;;15.60;1.40;;;17.05;100.00;95228.14;648174;212;32097;-72
2022/07/29 03:01:12;;;;;;;0.60;0.50;;;15.40;1.40;;;16.93;100.00;95226.30;632472;222;31660;-72
2022/07/29 03:06:27;;;;;;;0.73;0.50;;;15.30;1.40;;;16.82;100.00;95219.00;646559;212;31470;-72
2022/07/29 03:09:09;;;;;;;0.88;0.80;;;15.30;1.40;;;16.74;100.00;95217.20;652394;216;31711;-72
2022/07/29 03:11:51;;;;;;;0.95;0.60;;;15.30;1.40;;;16.71;100.00;95213.05;648782;216;31523;-72
2022/07/29 03:14:33;;;;;;;0.70;0.60;;;15.40;1.40;;;16.76;100.00;95209.41;645469;212;31457;-72
2022/07/29 03:17:14;;;;;;;0.62;0.55;;;15.70;1.40;;;16.82;100.00;95210.87;628822;222;31636;-72
2022/07/29 03:19:56;;;;;;;0.80;0.60;;;15.70;1.40;;;16.90;100.00;95203.70;646986;216;31476;-72
2022/07/29 03:22:43;;;;;;;0.68;0.60;;;15.80;1.40;;;16.99;100.00;95202.53;646812;216;31968;-72
2022/07/29 03:25:24;;;;;;;1.37;0.50;;;15.90;1.40;;;17.00;100.00;95208.20;644428;212;31996;-73
2022/07/29 03:28:06;;;;;;;4.30;0.93;;;15.90;1.40;;;16.94;100.00;95212.74;646026;216;31464;-73
2022/07/29 03:30:48;;;;;;;0.80;0.60;;;15.80;1.40;;;16.82;100.00;95219.58;648829;212;31481;-73
2022/07/29 03:35:51;;;;;;;1.00;0.80;;;15.40;1.40;;;16.45;100.00;95217.89;650110;216;31801;-72
2022/07/29 03:38:33;;;;;;;3.40;0.80;;;15.10;1.40;;;16.43;100.00;95220.21;649596;212;32028;-72
2022/07/29 03:41:14;;;;;;;0.50;0.50;;;15.00;1.40;;;16.32;100.00;95220.20;647806;216;31595;-72
2022/07/29 03:43:56;;;;;;;0.70;0.50;;;15.00;1.40;;;16.45;100.00;95218.09;620172;222;31818;-72
2022/07/29 03:46:38;;;;;;;0.50;0.50;;;15.00;1.40;;;16.53;100.00;95214.52;646807;216;31497;-72
2022/07/29 03:49:19;;;;;;;0.50;0.40;;;15.10;1.40;;;16.65;100.00;95211.77;649686;212;31500;-72
2022/07/29 03:52:01;;;;;;;1.37;0.73;;;15.20;1.40;;;16.79;100.00;95216.52;646212;212;31502;-74
2022/07/29 03:56:24;;;;;;;0.80;0.62;;;15.40;1.40;;;16.95;100.00;95216.03;650334;216;42100;-73
2022/07/29 03:59:05;;;;;;;0.68;0.40;;;15.50;1.40;;;17.07;100.00;95220.39;623763;222;32159;-73
2022/07/29 04:01:47;;;;;;;0.50;0.40;;;15.60;1.40;;;17.14;100.00;95219.41;617025;226;31840;-72
2022/07/29 04:04:29;;;;;;;0.90;0.50;;;15.60;1.40;;;17.30;100.00;95228.64;647706;216;31475;-72
2022/07/29 04:07:12;;;;;;;1.02;0.52;;;15.80;1.40;;;17.50;100.00;95238.57;647537;216;31518;-73
2022/07/29 04:09:54;;;;;;;1.40;0.65;;;15.90;1.40;;;17.46;100.00;95234.17;645069;216;31500;-72
2022/07/29 04:12:36;;;;;;;0.55;0.40;;;16.00;1.40;;;17.30;100.00;95234.44;647956;212;31675;-73
2022/07/29 04:15:19;;;;;;;1.60;0.50;;;15.80;1.40;;;17.40;100.00;95235.64;644861;216;31505;-73
2022/07/29 04:18:03;;;;;;;0.60;0.60;;;15.80;1.40;;;17.48;100.00;95239.52;648897;212;31564;-74
2022/07/29 04:20:45;;;;;;;1.30;0.70;;;15.80;1.40;;;17.45;100.00;95240.09;645699;212;31468;-72
2022/07/29 04:26:01;;;;;;;1.10;0.70;;;16.00;1.40;;;17.62;100.00;95244.22;646627;212;31473;-72
2022/07/29 04:28:43;;;;;;;0.60;0.60;;;16.00;1.40;;;17.75;100.00;95243.91;648736;212;31783;-73
2022/07/29 04:31:24;;;;;;;1.17;0.90;;;16.00;1.40;;;17.66;100.00;95245.00;650675;216;31484;-73
2022/07/29 04:35:56;;;;;;;0.90;0.62;;;16.00;1.40;;;17.69;100.00;95249.59;618806;222;31819;-73
2022/07/29 04:38:38;;;;;;;1.40;0.80;;;16.00;1.40;;;17.62;100.00;95254.25;645859;212;32115;-73
2022/07/29 04:41:20;;;;;;;0.75;0.70;;;16.00;1.40;;;17.64;100.00;95253.64;648153;212;42095;-73
2022/07/29 04:44:05;;;;;;;0.70;0.50;;;16.00;1.40;;;17.78;100.00;95258.03;645899;216;31809;-73
2022/07/29 04:46:44;;;;;;;0.95;0.80;;;16.10;1.40;;;17.95;100.00;95262.75;649004;212;31499;-72
2022/07/29 04:49:26;;;;;;;0.60;0.50;;;16.20;1.40;;;17.70;100.00;95263.00;649137;216;31490;-73
2022/07/29 04:52:08;;;;;;;1.75;0.73;;;16.00;1.40;;;17.60;100.00;95264.20;645950;216;31577;-72
2022/07/29 04:54:50;;;;;;;2.87;0.88;;;16.00;1.40;;;17.57;100.00;95265.23;634443;212;31661;-73
2022/07/29 04:57:31;;;;;;;1.50;1.10;;;15.90;1.40;;;17.57;100.00;95263.25;644505;216;31490;-73
2022/07/29 05:00:14;;;;;;;1.27;0.70;;;15.90;1.40;;;17.53;100.00;95266.53;645344;212;31644;-73
2022/07/29 05:02:55;;;;;;;0.68;0.50;;;15.90;1.40;;;17.54;100.00;95269.78;647062;216;42139;-72
2022/07/29 05:05:40;;;;;;;0.57;0.50;;;15.90;1.40;;;17.61;100.00;95269.18;648861;216;31633;-72
2022/07/29 05:08:22;;;;;;;1.00;0.70;;;15.90;1.40;;;17.70;100.00;95276.03;651045;212;32115;-72
2022/07/29 05:11:04;;;;;;;0.60;0.60;;;16.00;1.40;;;17.83;100.00;95277.41;622461;226;31951;-73
2022/07/29 05:13:46;;;;;;;1.05;0.70;;;16.20;1.40;;;17.97;100.00;95282.22;644270;216;32157;-72
2022/07/29 05:16:27;;;;;;;1.20;0.60;;;16.40;1.40;;;17.99;100.00;95281.27;620648;226;31813;-73
2022/07/29 05:19:12;;;;;;;0.60;0.30;;;16.40;1.40;;;18.09;100.00;95282.70;647084;216;32004;-73
2022/07/29 05:21:54;;;;;;;0.90;0.80;;;16.50;1.40;;;18.19;100.00;95283.64;646755;212;31500;-72
2022/07/29 05:24:35;;;;;;;0.80;0.40;;;16.50;1.40;;;18.16;100.00;95287.35;645610;212;31483;-72
2022/07/29 05:27:17;;;;;;;0.90;0.60;;;16.50;1.40;;;18.27;100.00;95284.86;645742;212;32075;-72
2022/07/29 05:29:59;;;;;;;3.00;0.70;;;16.60;1.40;;;18.42;100.00;95285.33;649467;216;31474;-73
2022/07/29 05:32:47;;;;;;;0.60;0.40;;;16.70;1.40;;;18.59;100.00;95291.59;646579;216;31562;-76
2022/07/29 05:35:50;;;;;;;0.80;0.40;;;16.90;1.40;;;18.58;100.00;95287.48;617874;222;31881;-72
2022/07/29 05:38:32;;;;;;;0.60;0.50;;;17.10;1.40;;;18.73;100.00;95291.63;646187;216;31845;-74
2022/07/29 05:41:14;;;;;;;0.60;0.50;;;17.00;1.40;;;18.74;100.00;95288.58;649670;216;32010;-72
2022/07/29 05:46:30;;;;;;;1.00;0.70;;;17.30;1.40;;;18.89;100.00;95294.09;645690;212;31477;-73
2022/07/29 05:49:11;;;;;;;1.48;0.52;;;17.40;1.40;;;19.10;100.00;95292.14;647839;212;31557;-77
2022/07/29 05:51:53;;;;;;;1.15;0.98;;;17.50;1.40;;;19.21;100.00;95294.23;647893;216;31631;-76
2022/07/29 05:54:39;;;;;;;0.80;0.70;;;17.60;1.40;;;19.32;100.00;95290.72;647134;216;31480;-76
2022/07/29 05:57:26;;;;;;;1.00;0.40;;;17.70;1.40;;;19.40;100.00;95291.98;647790;216;31471;-76
2022/07/29 06:00:10;;;;;;;0.60;0.40;;;17.80;1.40;;;19.34;100.00;95293.17;622576;222;31862;-77
2022/07/29 06:02:57;;;;;;;1.50;0.90;;;17.80;1.40;;;19.05;100.00;95289.08;645973;216;31511;-76
2022/07/29 06:05:42;;;;;;;1.10;0.70;;;17.40;1.40;;;18.59;100.00;95293.63;647764;212;32058;-75
2022/07/29 06:08:23;;;;;;;1.50;0.90;;;16.50;1.40;;;18.53;100.00;95292.64;649933;216;31467;-75
2022/07/29 06:11:08;;;;;;;0.82;0.60;;;16.30;1.40;;;18.45;100.00;95287.02;644039;216;31513;-76
2022/07/29 06:13:51;;;;;;;0.85;0.70;;;16.20;1.40;;;18.41;100.00;95287.84;646138;212;31567;-76
2022/07/29 06:18:58;;;;;;;1.33;1.00;;;16.00;1.40;;;18.28;100.00;95289.14;621099;222;31805;-76
2022/07/29 06:21:44;;;;;;;0.80;0.50;;;16.20;1.40;;;18.27;100.00;95289.68;622976;226;31981;-76
2022/07/29 06:24:32;;;;;;;0.50;0.50;;;16.20;1.40;;;18.21;100.00;95292.17;644177;216;31558;-75
2022/07/29 06:27:20;;;;;;;0.70;0.40;;;15.90;1.40;;;18.15;100.00;95292.09;645609;212;31495;-76
2022/07/29 06:30:06;;;;;;;0.70;0.70;;;15.90;1.40;;;18.08;100.00;95292.87;643941;216;31521;-76
2022/07/29 06:32:52;;;;;;;0.50;0.35;;;16.00;1.40;;;18.29;100.00;95300.14;647004;216;31461;-76
2022/07/29 06:35:53;;;;;;;1.40;0.60;;;16.20;1.40;;;18.38;100.00;95299.80;649395;212;31505;-76
2022/07/29 06:38:40;;;;;;;0.70;0.60;;;16.30;1.40;;;18.38;100.00;95304.00;646310;216;31593;-76
2022/07/29 06:44:04;;;;;;;0.77;0.62;;;16.50;1.40;;;18.68;100.00;95305.20;647314;216;31595;-75
2022/07/29 06:46:46;;;;;;;0.73;0.73;;;16.60;1.40;;;18.66;100.00;95318.26;650254;216;31454;-76
2022/07/29 06:49:32;;;;;;;1.12;0.60;;;17.30;1.40;;;18.99;100.00;95319.31;651225;216;31457;-76
2022/07/29 06:52:20;;;;;;;0.70;0.50;;;17.80;1.40;;;19.05;100.00;95319.50;646595;216;31463;-75
2022/07/29 06:55:02;;;;;;;1.20;0.70;;;18.00;1.40;;;19.26;100.00;95322.21;647397;216;31454;-75
2022/07/29 06:57:43;;;;;;;0.93;0.50;;;18.20;1.40;;;19.34;100.00;95324.81;649202;216;31476;-75
2022/07/29 07:00:25;;;;;;;1.50;0.70;;;18.20;1.40;;;19.53;100.00;95325.53;645798;212;31506;-75
2022/07/29 07:03:07;;;;;;;1.05;0.60;;;18.30;1.40;;;19.75;100.00;95331.53;618768;222;31845;-74
2022/07/29 07:05:49;;;;;;;1.00;0.60;;;18.30;1.40;;;20.00;100.00;95326.61;648244;212;42680;-75
2022/07/29 07:08:31;;;;;;;0.50;0.50;;;18.40;1.40;;;20.32;100.00;95334.70;646138;216;31518;-75
2022/07/29 07:11:13;;;;;;;0.60;0.60;;;18.50;1.40;;;20.58;100.00;95335.57;648580;216;31734;-75
2022/07/29 07:13:55;;;;;;;1.00;0.50;;;18.70;1.40;;;20.66;100.00;95339.16;646211;212;31522;-74
2022/07/29 07:16:36;;;;;;;1.30;0.77;;;18.70;1.40;;;20.83;100.00;95339.19;619679;226;42638;-75
2022/07/29 07:19:21;;;;;;;1.35;0.90;;;18.90;1.40;;;20.95;100.00;95333.91;647957;212;32138;-74
2022/07/29 07:22:06;;;;;;;1.00;0.90;;;18.90;1.40;;;21.15;100.00;95332.92;648985;216;31677;-74
2022/07/29 07:24:57;;;;;;;0.90;0.80;;;19.00;1.40;;;21.43;100.00;95332.48;647611;216;31912;-75
2022/07/29 07:27:39;;;;;;;1.30;0.90;;;19.30;1.40;;;21.47;100.00;95331.44;646118;216;31612;-78
2022/07/29 07:30:25;;;;;;;0.80;0.50;;;19.40;1.40;;;21.74;100.00;95329.95;642359;215;32066;-77
2022/07/29 07:35:57;;;;;;;0.70;0.50;;;19.60;1.40;;;21.93;100.00;95329.05;646552;216;31913;-75
2022/07/29 07:38:41;;;;;;;1.00;0.60;;;19.50;1.40;;;21.99;100.00;95327.58;648224;212;31469;-75
2022/07/29 07:41:23;;;;;;;2.20;0.70;;;20.00;1.40;;;22.22;100.00;95332.39;649018;212;31955;-75
2022/07/29 07:44:11;;;;;;;0.70;0.50;;;19.90;1.40;;;22.31;100.00;95329.64;647459;216;31524;-76
2022/07/29 07:46:59;;;;;;;0.70;0.60;;;20.00;1.40;;;22.46;100.00;95330.05;644856;212;31497;-75
2022/07/29 07:49:40;;;;;;;1.10;0.77;;;20.10;1.40;;;22.54;100.00;95332.97;644651;216;31632;-75
2022/07/29 07:52:24;;;;;;;0.70;0.50;;;20.10;1.40;;;22.62;100.00;95327.39;647685;212;31781;-75
2022/07/29 07:55:12;;;;;;;1.30;0.60;;;20.50;1.40;;;22.89;100.00;95336.05;636380;216;31626;-75
2022/07/29 07:57:56;;;;;;;0.70;0.70;;;20.90;1.40;;;22.98;100.00;95332.82;645893;216;31593;-75
2022/07/29 08:03:13;;;;;;;0.75;0.65;;;20.80;1.40;;;23.42;100.00;95334.36;646382;216;31479;-75
2022/07/29 08:05:54;;;;;;;1.00;0.90;;;21.00;1.40;;;23.59;100.00;95333.40;647658;216;32007;-75
2022/07/29 08:08:35;;;;;;;0.82;0.80;;;21.00;1.40;;;23.90;100.00;95332.47;649113;212;31479;-75
2022/07/29 08:13:13;;;;;;;0.65;0.65;;;21.40;1.40;;;24.70;100.00;95324.52;651367;216;31686;-75
2022/07/29 08:15:58;;;;;;;1.50;0.52;;;21.90;1.40;;;25.13;96.76;95327.21;647571;212;31845;-75
2022/07/29 08:18:39;;;;;;;0.85;0.75;;;22.20;1.40;;;25.33;94.57;95330.14;643872;216;34159;-74
2022/07/29 08:21:26;;;;;;;0.90;0.80;;;22.60;1.40;;;25.05;91.61;95338.09;648802;215;31482;-74
2022/07/29 08:29:32;;;;;;;1.00;0.90;;;23.20;1.40;;;26.41;85.66;95330.05;646775;214;31618;-74
2022/07/29 08:32:14;;;;;;;1.37;0.80;;;23.00;1.40;;;26.21;87.88;95328.53;645504;212;31651;-73
2022/07/29 08:35:51;;;;;;;1.30;0.90;;;22.70;1.40;;;25.81;86.48;95336.09;645487;215;31533;-75
2022/07/29 08:38:33;;;;;;;0.70;0.60;;;22.40;1.40;;;25.72;87.66;95334.89;646264;216;31577;-75
2022/07/29 08:41:18;;;;;;;2.62;1.40;;;22.50;1.40;;;26.13;87.04;95333.39;646665;216;31664;-74
2022/07/29 08:43:58;;;;;;;0.80;0.80;;;22.80;1.40;;;26.06;85.58;95339.31;646727;216;33368;-75
2022/07/29 08:46:49;;;;;;;2.70;0.80;;;22.70;1.40;;;26.21;85.89;95343.28;601234;233;42830;-75
2022/07/29 08:49:30;;;;;;;1.15;0.90;;;23.00;1.40;;;26.03;85.72;95348.95;645534;216;31476;-75
2022/07/29 08:52:12;;;;;;;0.88;0.88;;;22.80;1.40;;;26.25;85.68;95342.42;647011;216;31572;-75
2022/07/29 08:54:53;;;;;;;1.20;0.90;;;22.80;1.40;;;26.46;84.41;95340.56;646170;216;32149;-75
2022/07/29 08:57:35;;;;;;;1.00;0.90;;;22.90;1.40;;;26.47;84.26;95347.47;646445;216;31493;-76
2022/07/29 09:00:17;;;;;;;1.30;1.00;;;23.10;1.40;;;26.54;85.03;95352.28;646991;216;31525;-75
2022/07/29 09:02:59;;;;;;;0.80;0.70;;;23.60;1.40;;;27.04;83.20;95351.77;646860;216;31516;-75
2022/07/29 09:05:41;;;;;;;3.92;1.08;;;23.90;1.40;;;27.99;79.28;95345.88;644998;212;32030;-75
2022/07/29 09:08:23;;;;;;;1.05;0.85;;;24.50;1.40;;;27.96;78.08;95345.66;646984;216;32096;-75
2022/07/29 09:11:08;;;;;;;1.05;0.77;;;24.30;1.40;;;28.15;79.54;95339.92;646986;216;31507;-75
2022/07/29 09:13:49;;;;;;;1.10;0.70;;;24.70;1.40;;;28.44;77.67;95344.45;646544;216;31516;-75
2022/07/29 09:16:53;;;;;;;1.40;1.10;;;25.40;1.40;;;27.32;74.02;95346.41;618311;225;32097;-75
2022/07/29 09:19:38;;;;;;;1.10;1.00;;;24.90;1.40;;;26.55;80.60;95347.05;646141;212;31571;-74
2022/07/29 09:22:20;;;;;;;1.20;0.90;;;24.40;1.40;;;26.05;83.14;95351.32;646375;216;42664;-75
2022/07/29 09:25:01;;;;;;;1.10;1.00;;;24.00;1.40;;;25.72;84.42;95355.36;645863;215;31585;-75
2022/07/29 09:27:43;;;;;;;1.33;1.00;;;23.70;1.40;;;25.14;88.41;95351.86;646373;216;32772;-76
2022/07/29 09:30:25;;;;;;;0.90;0.90;;;23.70;1.40;;;25.23;88.47;95359.24;646859;216;31564;-74
2022/07/29 09:36:07;;;;;;;1.30;1.10;;;24.30;1.40;;;26.50;85.05;95346.41;645540;216;32402;-75
2022/07/29 09:38:49;;;;;;;1.15;1.05;;;24.60;1.40;;;25.85;86.10;95348.97;646203;212;32143;-74
2022/07/29 09:44:05;;;;;;;1.20;1.10;;;23.60;1.40;;;25.00;90.69;95353.41;647327;216;32422;-75
2022/07/29 09:46:58;;;;;;;1.30;0.80;;;23.40;1.40;;;25.24;89.88;95352.22;647072;216;31547;-74
2022/07/29 09:49:54;;;;;;;1.42;1.20;;;23.60;1.40;;;25.36;88.52;95346.82;646930;216;31697;-75
2022/07/29 09:52:36;;;;;;;1.10;0.90;;;23.80;1.40;;;26.68;87.08;95335.29;645705;216;31663;-74
2022/07/29 09:55:17;;;;;;;1.20;1.10;;;25.90;1.40;;;27.68;83.05;95333.83;646370;216;31532;-76
2022/07/29 09:58:15;;;;;;;1.70;1.00;;;27.30;1.40;;;29.95;74.15;95323.91;647577;216;31519;-78
2022/07/29 10:00:56;;;;;;;4.10;1.20;;;29.20;1.40;;;30.47;70.58;95328.25;646617;216;31566;-75
2022/07/29 10:03:53;;;;;;;1.25;1.00;;;28.60;1.40;;;28.82;73.97;95329.33;645665;216;31512;-76
2022/07/29 10:06:35;;;;;;;1.27;1.17;;;26.60;1.40;;;29.86;73.28;95328.86;645974;216;31544;-75
2022/07/29 10:09:17;;;;;;;1.90;1.00;;;27.20;1.40;;;29.99;71.36;95323.58;646299;212;31662;-75
2022/07/29 10:12:06;;;;;;;1.52;1.40;;;28.50;1.40;;;30.26;68.09;95325.08;647662;216;42217;-75
2022/07/29 10:14:48;;;;;;;1.90;1.33;;;29.60;1.40;;;29.59;70.37;95330.78;646897;216;31503;-75
2022/07/29 10:17:29;;;;;;;1.40;1.15;;;28.10;1.40;;;29.10;68.91;95330.80;647187;216;31711;-75
2022/07/29 10:20:11;;;;;;;1.33;1.23;;;26.90;1.40;;;29.04;71.66;95327.38;645428;216;31548;-75
2022/07/29 10:22:59;;;;;;;2.00;1.20;;;29.30;1.40;;;30.55;66.70;95327.32;646544;216;31610;-76
2022/07/29 10:25:47;;;;;;;3.75;1.17;;;29.40;1.40;;;31.86;66.21;95320.18;646166;212;31568;-75
2022/07/29 10:28:28;;;;;;;1.70;1.30;;;28.90;1.40;;;31.12;66.05;95320.58;647387;216;31708;-75
2022/07/29 10:31:10;;;;;;;3.60;1.00;;;26.70;1.40;;;28.78;70.72;95328.94;646575;216;32062;-76
2022/07/29 10:36:00;;;;;;;2.47;1.40;;;26.40;1.40;;;28.00;74.78;95320.98;645862;212;42326;-75
2022/07/29 10:38:47;;;;;;;1.50;1.40;;;26.70;1.40;;;27.92;75.60;95321.77;645150;216;31514;-75
2022/07/29 10:41:52;;;;;;;1.80;1.30;;;26.20;1.40;;;28.77;75.23;95325.52;645613;216;42171;-75
2022/07/29 10:44:33;;;;;;;1.58;1.48;;;28.10;1.40;;;30.05;67.05;95324.97;646981;216;31511;-74
2022/07/29 10:47:24;;;;;;;2.47;1.80;;;29.00;1.40;;;31.48;66.54;95315.48;646249;216;43386;-75
2022/07/29 10:52:56;;;;;;;2.60;1.75;;;30.60;1.40;;;33.17;59.13;95310.95;616468;225;32040;-75
2022/07/29 10:55:55;;;;;;;1.30;1.20;;;31.00;1.40;;;35.09;54.65;95302.41;618959;226;32325;-79
2022/07/29 10:58:44;;;;;;;2.90;1.40;;;33.50;99.90;;;34.13;51.64;95305.30;647196;216;31635;-73
2022/07/29 11:01:31;;;;;;;1.40;1.30;;;32.10;99.90;;;33.36;51.88;95306.05;648307;212;31622;-75
2022/07/29 11:04:12;;;;;;;2.30;1.10;;;30.40;1.00;;;31.74;50.27;95319.02;646895;216;31449;-75
2022/07/29 11:07:16;;;;;;;2.00;1.10;;;30.10;99.90;;;33.04;50.07;95307.48;646218;212;31490;-75
2022/07/29 11:10:21;;;;;;;1.40;1.30;;;30.40;99.90;;;31.65;51.97;95310.25;645699;216;32586;-72
2022/07/29 11:13:06;;;;;;;1.40;1.30;;;29.00;99.90;;;32.45;52.14;95302.52;647061;216;31723;-74
2022/07/29 11:15:52;;;;;;;1.60;1.20;;;29.90;99.90;;;32.28;54.38;95300.98;619149;222;42627;-76
2022/07/29 11:18:34;;;;;;;1.50;1.40;;;30.40;99.90;;;31.43;55.01;95306.33;647756;216;31790;-75
2022/07/29 11:21:33;;;;;;;2.40;1.60;;;28.50;99.90;;;30.92;58.64;95303.63;646123;212;31671;-76
2022/07/29 11:24:27;;;;;;;1.50;1.20;;;28.20;99.90;;;30.41;56.77;95305.20;646817;212;31732;-76
2022/07/29 11:27:14;;;;;;;2.15;1.35;;;27.80;99.90;;;29.92;58.32;95299.80;618729;226;32093;-77
2022/07/29 11:29:55;;;;;;;1.80;1.30;;;27.50;99.90;;;29.65;60.25;95299.92;647514;216;31544;-76
2022/07/29 11:32:43;;;;;;;1.62;1.42;;;27.60;99.90;;;30.41;58.18;95295.83;647334;212;31988;-77
2022/07/29 11:36:16;;;;;;;1.20;1.10;;;28.10;99.90;;;30.12;58.21;95297.86;645675;216;31529;-76
2022/07/29 11:39:25;;;;;;;2.37;1.10;;;27.50;1.00;;;29.64;58.87;95300.34;645242;212;31547;-76
2022/07/29 11:42:40;;;;;;;1.58;1.48;;;27.10;99.90;;;28.74;62.30;95297.45;618627;226;31853;-76
2022/07/29 11:45:21;;;;;;;1.30;1.20;;;26.90;1.00;;;29.13;60.78;95290.92;647000;212;31508;-76
2022/07/29 11:48:04;;;;;;;2.30;1.40;;;27.10;99.90;;;28.91;60.95;95291.89;647344;216;42126;-76
2022/07/29 11:50:45;;;;;;;1.02;0.93;;;27.00;99.90;;;29.58;62.38;95282.97;646467;212;31492;-76
2022/07/29 11:53:29;;;;;;;2.20;1.60;;;27.30;99.90;;;29.12;64.15;95288.55;613708;222;32457;-76
2022/07/29 11:59:04;;;;;;;1.60;1.10;;;27.10;99.90;;;28.83;64.94;95277.77;645255;216;32145;-76
2022/07/29 12:01:53;;;;;;;3.70;1.73;;;27.20;99.90;;;28.65;64.36;95282.69;647565;216;31528;-76
2022/07/29 12:04:41;;;;;;;2.53;1.27;;;26.70;99.90;;;28.44;63.44;95281.28;647581;212;31545;-76
2022/07/29 12:07:31;;;;;;;1.62;1.52;;;26.70;99.90;;;28.96;61.52;95282.79;646445;212;32004;-76
2022/07/29 12:10:12;;;;;;;1.85;1.30;;;26.90;1.00;;;29.28;62.20;95280.16;645893;216;31751;-75
2022/07/29 12:12:54;;;;;;;1.52;1.42;;;27.10;1.00;;;28.57;62.97;95278.81;646365;212;31480;-75
2022/07/29 12:18:12;;;;;;;1.33;0.88;;;26.70;99.90;;;28.84;63.35;95274.44;646422;216;31576;-77
2022/07/29 12:20:57;;;;;;;1.58;1.00;;;26.90;99.90;;;29.11;61.71;95270.37;646162;216;31512;-75
2022/07/29 12:23:39;;;;;;;2.20;1.00;;;27.10;99.90;;;29.38;62.65;95269.00;646281;212;31651;-75
2022/07/29 12:26:21;;;;;;;3.33;1.48;;;27.40;99.90;;;29.30;60.24;95272.59;646380;216;31543;-75
2022/07/29 12:29:02;;;;;;;2.60;2.00;;;26.80;99.90;;;28.83;60.41;95271.27;646697;216;42200;-75
2022/07/29 12:31:44;;;;;;;4.00;1.60;;;26.40;99.90;;;28.26;63.03;95266.66;647020;212;31635;-76
2022/07/29 12:35:52;;;;;;;1.67;1.50;;;25.70;99.90;;;27.53;65.55;95272.91;645900;216;31555;-75